createdAt,value
2023-03-23T15:58:48.041Z,199.65
2023-03-23T16:01:19.553Z,60.97
2023-03-23T16:04:12.180Z,63.25
2023-03-23T16:06:41.673Z,29.15
2023-03-23T16:09:18.608Z,13.02
2023-03-23T16:11:46.128Z,15.68
2023-03-23T16:14:20.770Z,16.73
2023-03-23T16:16:51.263Z,15.13
2023-03-23T16:19:24.693Z,13.20
2023-03-23T16:21:54.115Z,10.40
2023-03-23T16:24:21.509Z,18.25
2023-03-23T16:26:49.011Z,25.77
2023-03-23T16:29:33.939Z,30.58
2023-03-23T16:32:04.894Z,19.02
2023-03-23T16:34:34.032Z,17.95
2023-03-23T16:37:01.589Z,15.05
2023-03-23T16:39:28.865Z,10.30
2023-03-23T16:41:56.455Z,9.70
2023-03-23T16:44:23.812Z,12.93
2023-03-23T16:46:52.548Z,14.32
2023-03-23T16:49:21.232Z,13.65
2023-03-23T16:51:50.804Z,8.15
2023-03-23T16:54:18.207Z,9.93
2023-03-23T16:56:47.152Z,11.68
2023-03-23T16:59:15.085Z,12.80
2023-03-23T17:01:43.524Z,11.43
2023-03-23T17:04:11.999Z,13.32
2023-03-23T17:06:46.624Z,10.88
2023-03-23T17:09:14.376Z,9.13
2023-03-23T17:11:41.742Z,5.68
2023-03-23T17:14:09.319Z,4.85
2023-03-23T17:16:40.590Z,3.47
2023-03-23T17:19:08.501Z,4.20
2023-03-23T17:21:38.525Z,5.65
2023-03-23T17:24:06.367Z,3.83
2023-03-23T17:26:34.540Z,5.30
2023-03-23T17:29:04.404Z,6.22
2023-03-23T17:31:31.968Z,5.95
2023-03-23T17:34:01.299Z,4.88
2023-03-23T17:36:28.746Z,5.32
2023-03-23T17:38:56.494Z,6.45
2023-03-23T17:41:29.271Z,6.47
2023-03-23T17:43:56.978Z,15.32
2023-03-23T17:46:25.182Z,11.90
2023-03-23T17:48:53.716Z,8.73
2023-03-23T17:51:22.551Z,23.77
2023-03-23T17:53:50.987Z,8.60
2023-03-23T17:56:21.106Z,6.88
2023-03-23T17:58:48.955Z,10.70
2023-03-23T18:01:25.624Z,24.02
2023-03-23T18:03:53.967Z,36.63
2023-03-23T18:06:22.108Z,44.95
2023-03-23T18:08:51.193Z,63.33
2023-03-23T18:11:19.306Z,42.60
2023-03-23T18:13:53.532Z,41.75
2023-03-23T18:16:22.708Z,49.90
2023-03-23T18:18:50.670Z,37.60
2023-03-23T18:21:18.639Z,34.05
2023-03-23T18:23:58.300Z,92.25
2023-03-23T18:26:29.446Z,83.40
2023-03-23T18:28:57.750Z,47.00
2023-03-23T18:31:25.643Z,22.23
2023-03-23T18:33:56.720Z,20.15
2023-03-23T18:36:28.624Z,17.65
2023-03-23T18:38:58.190Z,24.45
2023-03-23T18:41:27.166Z,23.77
2023-03-23T18:43:57.104Z,24.27
2023-03-23T18:46:27.225Z,33.30
2023-03-23T18:48:56.682Z,35.88
2023-03-23T18:51:32.469Z,34.65
2023-03-23T18:54:00.723Z,34.25
2023-03-23T18:56:29.570Z,33.60
2023-03-23T18:58:57.987Z,24.75
2023-03-23T19:01:26.535Z,18.17
2023-03-23T19:03:54.801Z,21.42
2023-03-23T19:06:28.110Z,22.02
2023-03-23T19:08:56.504Z,25.42
2023-03-23T19:11:27.137Z,23.35
2023-03-23T19:16:31.848Z,22.40
2023-03-23T19:19:06.840Z,23.42
2023-03-23T19:21:37.593Z,18.27
2023-03-23T19:24:09.278Z,23.20
2023-03-23T19:26:46.753Z,20.80
2023-03-23T19:29:26.689Z,19.30
2023-03-23T19:31:59.084Z,19.60
2023-03-23T19:34:30.112Z,22.85
2023-03-23T19:37:05.552Z,64.32
2023-03-23T19:39:36.429Z,56.03
2023-03-23T19:42:07.831Z,42.05
2023-03-23T19:44:36.296Z,24.65
2023-03-23T19:47:05.815Z,24.35
2023-03-23T19:49:34.222Z,24.75
2023-03-23T19:52:06.393Z,21.05
2023-03-23T19:54:51.519Z,15.85
2023-03-23T19:57:21.771Z,15.77
2023-03-23T19:59:50.257Z,18.10
2023-03-23T20:02:19.311Z,15.68
2023-03-23T20:04:48.724Z,13.63
2023-03-23T20:07:17.273Z,49.17
2023-03-23T20:09:45.858Z,17.60
2023-03-23T20:12:21.217Z,18.55
2023-03-23T20:14:49.257Z,19.65
2023-03-23T20:17:18.775Z,11.18
2023-03-23T20:19:47.127Z,8.48
2023-03-23T20:22:15.408Z,8.90
2023-03-23T20:24:48.300Z,9.93
2023-03-23T20:27:17.734Z,10.88
2023-03-23T20:29:45.980Z,14.73
2023-03-23T20:32:14.556Z,11.38
2023-03-23T20:34:46.685Z,8.57
2023-03-23T20:37:17.864Z,8.82
2023-03-23T20:39:46.834Z,9.63
2023-03-23T20:42:15.319Z,10.20
2023-03-23T20:44:43.344Z,8.70
2023-03-23T20:47:12.935Z,9.02
2023-03-23T20:49:41.498Z,9.07
2023-03-23T20:52:12.508Z,8.63
2023-03-23T20:54:41.462Z,9.23
2023-03-23T20:57:14.061Z,7.70
2023-03-23T20:59:45.127Z,9.52
2023-03-23T21:02:16.512Z,7.78
2023-03-23T21:04:46.395Z,11.05
2023-03-23T21:07:17.265Z,10.60
2023-03-23T21:09:47.135Z,9.95
2023-03-23T21:12:15.083Z,9.32
2023-03-23T21:14:45.536Z,9.05
2023-03-23T21:17:14.677Z,8.05
2023-03-23T21:19:42.532Z,8.23
2023-03-23T21:22:14.977Z,8.65
2023-03-23T21:24:46.943Z,7.65
2023-03-23T21:27:14.793Z,7.68
2023-03-23T21:29:42.547Z,8.88
2023-03-23T21:32:10.230Z,8.88
2023-03-23T21:34:38.557Z,7.68
2023-03-23T21:37:06.030Z,8.02
2023-03-23T21:39:34.973Z,10.50
2023-03-23T21:42:04.986Z,9.13
2023-03-23T21:44:35.216Z,12.82
2023-03-23T21:47:03.528Z,9.18
2023-03-23T21:49:32.560Z,9.90
2023-03-23T21:52:00.357Z,9.40
2023-03-23T21:54:30.676Z,12.45
2023-03-23T21:57:01.795Z,10.13
2023-03-23T21:59:29.039Z,9.32
2023-03-23T22:01:58.565Z,7.65
2023-03-23T22:04:25.962Z,5.57
2023-03-23T22:06:53.330Z,5.55
2023-03-23T22:09:20.817Z,4.85
2023-03-23T22:11:48.268Z,5.47
2023-03-23T22:14:15.691Z,24.05
2023-03-23T22:16:43.263Z,5.05
2023-03-23T22:19:10.771Z,5.25
2023-03-23T22:21:38.343Z,4.90
2023-03-23T22:24:06.174Z,6.45
2023-03-23T22:26:33.925Z,5.85
2023-03-23T22:29:02.766Z,5.03
2023-03-23T22:31:34.646Z,9.35
2023-03-23T22:34:03.341Z,7.75
2023-03-23T22:36:31.229Z,6.03
2023-03-23T22:39:01.627Z,7.47
2023-03-23T22:41:38.630Z,6.63
2023-03-23T22:44:06.915Z,5.32
2023-03-23T22:46:34.339Z,6.35
2023-03-23T22:49:02.114Z,9.43
2023-03-23T22:51:29.821Z,7.47
2023-03-23T22:54:05.217Z,4.05
2023-03-23T22:56:33.187Z,3.90
2023-03-23T22:59:01.149Z,4.22
2023-03-23T23:01:29.093Z,4.10
2023-03-23T23:03:56.736Z,4.90
2023-03-23T23:06:25.325Z,4.15
2023-03-23T23:08:53.077Z,3.88
2023-03-23T23:11:23.359Z,5.13
2023-03-23T23:13:51.384Z,3.47
2023-03-23T23:16:19.738Z,4.25
2023-03-23T23:18:50.133Z,4.32
2023-03-23T23:21:24.413Z,4.88
2023-03-23T23:23:53.619Z,3.90
2023-03-23T23:26:20.991Z,2.83
2023-03-23T23:29:02.967Z,3.65
2023-03-23T23:31:32.921Z,4.60
2023-03-23T23:34:01.806Z,6.40
2023-03-23T23:36:32.219Z,5.15
2023-03-23T23:39:01.986Z,4.90
2023-03-23T23:41:30.588Z,4.63
2023-03-23T23:43:58.714Z,3.85
2023-03-23T23:46:26.998Z,4.20
2023-03-23T23:48:54.703Z,4.43
2023-03-23T23:51:22.004Z,3.78
2023-03-23T23:53:53.728Z,4.43
2023-03-23T23:56:22.654Z,3.03
2023-03-23T23:58:50.057Z,4.45
